Time,TemperatureF,DewpointF,PressureIn,WindDirection,WindDirectionDegrees,WindSpeedMPH,WindSpeedGustMPH,Humidity,HourlyPrecipIn,Conditions,Clouds,dailyrainin,SoftwareType,DateUTC
2013-03-05 00:00:00,41.5,28.3,29.92,North,10,2.0,4.0,59,0.00,,---,0.00,VWS V12.07,2013-03-05 05:00:00,
2013-03-05 00:01:00,41.5,28.7,29.92,North,10,2.0,4.0,60,0.00,,---,0.00,VWS V12.07,2013-03-05 05:01:00,
2013-03-05 00:06:00,41.5,28.7,29.92,North,10,2.0,4.0,60,0.00,,---,0.00,VWS V12.07,2013-03-05 05:06:00,
2013-03-05 00:08:00,41.5,29.1,29.92,North,10,2.0,4.0,61,0.00,,---,0.00,VWS V12.07,2013-03-05 05:08:00,
2013-03-05 00:13:00,41.3,30.1,29.92,North,10,2.0,4.0,64,0.00,,---,0.00,VWS V12.07,2013-03-05 05:13:00,
2013-03-05 00:18:00,41.2,30.7,29.91,North,10,2.0,4.0,66,0.00,,---,0.00,VWS V12.07,2013-03-05 05:18:00,
2013-03-05 00:23:00,41.1,30.2,29.91,North,10,2.0,4.0,65,0.00,,---,0.00,VWS V12.07,2013-03-05 05:23:00,
2013-03-05 00:28:00,41.1,29.9,29.91,North,10,2.0,4.0,64,0.00,,---,0.00,VWS V12.07,2013-03-05 05:28:00,
2013-03-05 00:33:00,40.9,29.7,29.90,North,10,2.0,4.0,64,0.00,,---,0.00,VWS V12.07,2013-03-05 05:33:00,
2013-03-05 00:38:00,40.9,30.1,29.90,North,10,2.0,4.0,65,0.00,,---,0.00,VWS V12.07,2013-03-05 05:38:00,
2013-03-05 00:43:00,40.8,28.8,29.90,North,10,2.0,4.0,62,0.00,,---,0.00,VWS V12.07,2013-03-05 05:43:00,
2013-03-05 00:48:00,40.8,28.8,29.89,North,10,2.0,4.0,62,0.00,,---,0.00,VWS V12.07,2013-03-05 05:48:00,
2013-03-05 00:53:00,40.9,29.3,29.89,North,10,2.0,4.0,63,0.00,,---,0.00,VWS V12.07,2013-03-05 05:53:00,
2013-03-05 00:58:00,41.1,29.5,29.89,North,10,2.0,4.0,63,0.00,,---,0.00,VWS V12.07,2013-03-05 05:58:00,
2013-03-05 01:03:00,41.1,29.1,29.89,NNE,12,3.0,6.0,62,0.00,,---,0.00,VWS V12.07,2013-03-05 06:03:00,
2013-03-05 01:08:00,41.8,29.0,29.89,NNE,12,2.0,4.0,60,0.00,,---,0.00,VWS V12.07,2013-03-05 06:08:00,
2013-03-05 01:13:00,42.1,28.8,29.89,NNE,12,2.0,4.0,59,0.00,,---,0.00,VWS V12.07,2013-03-05 06:13:00,
2013-03-05 01:18:00,42.5,29.2,29.88,ESE,106,5.0,9.0,59,0.00,,---,0.00,VWS V12.07,2013-03-05 06:18:00,
2013-03-05 01:23:00,43.5,28.9,29.88,ESE,113,3.0,9.0,56,0.00,,---,0.00,VWS V12.07,2013-03-05 06:23:00,
2013-03-05 01:28:00,44.2,27.7,29.88,SSE,151,3.0,7.0,52,0.00,,---,0.00,VWS V12.07,2013-03-05 06:28:00,
2013-03-05 01:33:00,45.1,27.6,29.88,SE,145,6.0,14.0,50,0.00,,---,0.00,VWS V12.07,2013-03-05 06:33:00,
2013-03-05 01:38:00,45.7,28.1,29.88,SE,126,7.0,14.0,50,0.00,,---,0.00,VWS V12.07,2013-03-05 06:38:00,
2013-03-05 01:43:00,46.0,28.4,29.88,SE,130,7.0,14.0,50,0.00,,---,0.00,VWS V12.07,2013-03-05 06:43:00,
2013-03-05 01:48:00,46.0,28.4,29.87,ESE,108,8.0,11.0,50,0.00,,---,0.00,VWS V12.07,2013-03-05 06:48:00,
2013-03-05 01:53:00,46.0,28.4,29.87,ESE,110,7.0,9.0,50,0.00,,---,0.00,VWS V12.07,2013-03-05 06:53:00,
2013-03-05 01:58:00,46.1,28.5,29.87,SSE,161,16.0,19.0,50,0.00,,---,0.00,VWS V12.07,2013-03-05 06:58:00,
2013-03-05 02:03:00,46.2,28.6,29.87,ESE,104,5.0,11.0,50,0.00,,---,0.00,VWS V12.07,2013-03-05 07:03:00,
2013-03-05 02:08:00,46.1,28.0,29.87,East,97,7.0,14.0,49,0.00,,---,0.00,VWS V12.07,2013-03-05 07:08:00,
2013-03-05 02:13:00,46.2,28.1,29.87,ESE,102,7.0,12.0,49,0.00,,---,0.00,VWS V12.07,2013-03-05 07:13:00,
2013-03-05 02:18:00,46.2,28.1,29.86,East,79,2.0,10.0,49,0.00,,---,0.00,VWS V12.07,2013-03-05 07:18:00,
2013-03-05 02:23:00,46.2,28.1,29.86,East,95,5.0,9.0,49,0.00,,---,0.00,VWS V12.07,2013-03-05 07:23:00,
2013-03-05 02:28:00,46.2,28.6,29.86,East,97,6.0,10.0,50,0.00,,---,0.00,VWS V12.07,2013-03-05 07:28:00,
2013-03-05 02:33:00,46.2,28.1,29.86,ESE,109,2.0,9.0,49,0.00,,---,0.00,VWS V12.07,2013-03-05 07:33:00,
2013-03-05 02:38:00,46.2,28.1,29.86,ESE,102,6.0,11.0,49,0.00,,---,0.00,VWS V12.07,2013-03-05 07:38:00,
2013-03-05 02:43:00,46.4,27.8,29.86,ESE,122,8.0,14.0,48,0.00,,---,0.00,VWS V12.07,2013-03-05 07:43:00,
2013-03-05 02:48:00,46.5,27.9,29.85,SSE,149,7.0,16.0,48,0.00,,---,0.00,VWS V12.07,2013-03-05 07:48:00,
2013-03-05 02:53:00,46.7,27.6,29.85,East,92,7.0,14.0,47,0.00,,---,0.00,VWS V12.07,2013-03-05 07:53:00,
2013-03-05 02:58:00,46.7,27.6,29.85,East,79,8.0,14.0,47,0.00,,---,0.00,VWS V12.07,2013-03-05 07:58:00,
2013-03-05 03:03:00,46.8,27.6,29.84,ESE,104,7.0,14.0,47,0.00,,---,0.00,VWS V12.07,2013-03-05 08:03:00,
2013-03-05 03:08:00,46.5,28.4,29.84,East,79,8.0,18.0,49,0.00,,---,0.00,VWS V12.07,2013-03-05 08:08:00,
2013-03-05 03:13:00,46.4,29.3,29.84,ENE,72,13.0,15.0,51,0.00,,---,0.00,VWS V12.07,2013-03-05 08:13:00,
2013-03-05 03:18:00,46.4,28.8,29.84,SE,125,5.0,15.0,50,0.00,,---,0.00,VWS V12.07,2013-03-05 08:18:00,
2013-03-05 03:23:00,46.2,29.1,29.84,ESE,120,6.0,14.0,51,0.00,,---,0.00,VWS V12.07,2013-03-05 08:23:00,
2013-03-05 03:28:00,46.0,29.4,29.84,ENE,73,7.0,13.0,52,0.00,,---,0.00,VWS V12.07,2013-03-05 08:28:00,
2013-03-05 03:33:00,45.8,29.2,29.83,ENE,75,7.0,11.0,52,0.00,,---,0.00,VWS V12.07,2013-03-05 08:33:00,
2013-03-05 03:38:00,45.8,29.2,29.83,East,99,2.0,10.0,52,0.00,,---,0.00,VWS V12.07,2013-03-05 08:38:00,
2013-03-05 03:43:00,45.8,29.2,29.83,ESE,112,2.0,7.0,52,0.00,,---,0.00,VWS V12.07,2013-03-05 08:43:00,
2013-03-05 03:48:00,45.8,29.2,29.82,East,94,11.0,13.0,52,0.00,,---,0.00,VWS V12.07,2013-03-05 08:48:00,
2013-03-05 03:53:00,46.0,29.4,29.82,East,90,5.0,10.0,52,0.00,,---,0.00,VWS V12.07,2013-03-05 08:53:00,
2013-03-05 03:58:00,46.0,29.8,29.82,East,95,6.0,11.0,53,0.00,,---,0.00,VWS V12.07,2013-03-05 08:58:00,
2013-03-05 04:03:00,46.0,30.8,29.82,East,83,5.0,9.0,55,0.00,,---,0.00,VWS V12.07,2013-03-05 09:03:00,
2013-03-05 04:08:00,45.8,30.6,29.82,ESE,120,9.0,11.0,55,0.00,,---,0.00,VWS V12.07,2013-03-05 09:08:00,
2013-03-05 04:13:00,45.7,31.4,29.82,ESE,114,8.0,14.0,57,0.00,,---,0.00,VWS V12.07,2013-03-05 09:13:00,
2013-03-05 04:18:00,45.5,32.0,29.83,ESE,112,6.0,9.0,59,0.00,,---,0.01,VWS V12.07,2013-03-05 09:18:00,
2013-03-05 04:23:00,45.2,32.6,29.83,SE,131,4.0,8.0,61,0.01,,---,0.01,VWS V12.07,2013-03-05 09:23:00,
2013-03-05 04:28:00,44.8,33.4,29.83,ESE,112,4.0,8.0,64,0.01,,---,0.01,VWS V12.07,2013-03-05 09:28:00,
2013-03-05 04:33:00,44.1,33.9,29.84,SE,127,6.0,8.0,67,0.02,,---,0.02,VWS V12.07,2013-03-05 09:33:00,
2013-03-05 04:38:00,43.5,34.7,29.84,ESE,102,3.0,7.0,71,0.03,,---,0.03,VWS V12.07,2013-03-05 09:38:00,
2013-03-05 04:43:00,42.9,34.8,29.84,SE,130,5.0,9.0,73,0.04,,---,0.04,VWS V12.07,2013-03-05 09:43:00,
2013-03-05 04:48:00,42.5,35.2,29.84,ESE,121,2.0,7.0,75,0.06,,---,0.06,VWS V12.07,2013-03-05 09:48:00,
2013-03-05 04:53:00,42.2,35.5,29.84,ESE,114,2.0,8.0,77,0.07,,---,0.08,VWS V12.07,2013-03-05 09:53:00,
2013-03-05 04:58:00,41.8,35.5,29.84,ESE,102,2.0,6.0,78,0.10,,---,0.10,VWS V12.07,2013-03-05 09:58:00,
2013-03-05 05:03:00,41.5,35.8,29.84,ESE,102,2.0,7.0,80,0.11,,---,0.12,VWS V12.07,2013-03-05 10:03:00,
2013-03-05 05:08:00,41.2,35.8,29.84,ESE,102,2.0,7.0,81,0.13,,---,0.13,VWS V12.07,2013-03-05 10:08:00,
2013-03-05 05:13:00,41.1,36.3,29.84,ESE,102,3.0,7.0,83,0.14,,---,0.15,VWS V12.07,2013-03-05 10:13:00,
2013-03-05 05:18:00,40.9,36.5,29.84,ENE,68,3.0,8.0,84,0.16,,---,0.17,VWS V12.07,2013-03-05 10:18:00,
2013-03-05 05:23:00,40.6,36.5,29.84,ESE,106,2.0,7.0,85,0.17,,---,0.19,VWS V12.07,2013-03-05 10:23:00,
2013-03-05 05:28:00,40.5,36.3,29.84,East,95,4.0,7.0,85,0.19,,---,0.20,VWS V12.07,2013-03-05 10:28:00,
2013-03-05 05:33:00,40.3,36.5,29.84,ENE,78,2.0,7.0,86,0.20,,---,0.22,VWS V12.07,2013-03-05 10:33:00,
2013-03-05 05:38:00,40.2,36.7,29.84,ENE,78,2.0,6.0,87,0.21,,---,0.25,VWS V12.07,2013-03-05 10:38:00,
2013-03-05 05:43:00,40.1,36.5,29.84,ENE,78,2.0,5.0,87,0.22,,---,0.26,VWS V12.07,2013-03-05 10:43:00,
2013-03-05 05:48:00,39.9,36.6,29.84,ENE,78,2.0,4.0,88,0.22,,---,0.27,VWS V12.07,2013-03-05 10:48:00,
2013-03-05 05:53:00,39.9,36.6,29.84,ENE,78,2.0,4.0,88,0.21,,---,0.28,VWS V12.07,2013-03-05 10:53:00,
2013-03-05 05:58:00,39.8,36.8,29.84,ENE,78,2.0,5.0,89,0.19,,---,0.28,VWS V12.07,2013-03-05 10:58:00,
2013-03-05 06:03:00,39.8,36.8,29.84,ENE,78,2.0,6.0,89,0.18,,---,0.29,VWS V12.07,2013-03-05 11:03:00,
2013-03-05 06:08:00,39.8,37.1,29.84,ENE,78,3.0,7.0,90,0.17,,---,0.30,VWS V12.07,2013-03-05 11:08:00,
2013-03-05 06:13:00,39.8,37.1,29.84,NE,43,6.0,9.0,90,0.17,,---,0.31,VWS V12.07,2013-03-05 11:13:00,
2013-03-05 06:18:00,39.8,37.1,29.84,NE,45,4.0,9.0,90,0.16,,---,0.32,VWS V12.07,2013-03-05 11:18:00,
2013-03-05 06:23:00,39.8,37.1,29.84,NE,45,4.0,7.0,90,0.15,,---,0.33,VWS V12.07,2013-03-05 11:23:00,
2013-03-05 06:28:00,39.8,37.4,29.84,ENE,72,8.0,11.0,91,0.14,,---,0.35,VWS V12.07,2013-03-05 11:28:00,
2013-03-05 06:33:00,39.8,37.4,29.84,NE,45,7.0,9.0,91,0.16,,---,0.37,VWS V12.07,2013-03-05 11:33:00,
2013-03-05 06:38:00,39.8,37.4,29.84,NE,49,6.0,9.0,91,0.15,,---,0.39,VWS V12.07,2013-03-05 11:38:00,
2013-03-05 06:43:00,39.6,37.2,29.84,NNE,12,8.0,10.0,91,0.14,,---,0.40,VWS V12.07,2013-03-05 11:43:00,
2013-03-05 06:48:00,39.6,37.2,29.83,NE,41,5.0,10.0,91,0.15,,---,0.42,VWS V12.07,2013-03-05 11:48:00,
2013-03-05 06:53:00,39.6,37.2,29.83,NE,39,6.0,11.0,91,0.14,,---,0.42,VWS V12.07,2013-03-05 11:53:00,
2013-03-05 06:58:00,39.6,37.2,29.83,NE,53,4.0,8.0,91,0.16,,---,0.44,VWS V12.07,2013-03-05 11:58:00,
2013-03-05 07:03:00,39.6,37.2,29.83,NE,37,2.0,4.0,91,0.16,,---,0.45,VWS V12.07,2013-03-05 12:03:00,
2013-03-05 07:08:00,39.6,37.5,29.83,NE,35,2.0,4.0,92,0.16,,---,0.46,VWS V12.07,2013-03-05 12:08:00,
2013-03-05 07:13:00,39.6,37.2,29.83,NE,35,5.0,7.0,91,0.16,,---,0.47,VWS V12.07,2013-03-05 12:13:00,
2013-03-05 07:18:00,39.5,37.1,29.83,NE,35,2.0,6.0,91,0.17,,---,0.48,VWS V12.07,2013-03-05 12:18:00,
2013-03-05 07:23:00,39.3,37.2,29.83,NE,35,5.0,8.0,92,0.17,,---,0.50,VWS V12.07,2013-03-05 12:23:00,
2013-03-05 07:28:00,39.3,37.2,29.83,NNE,23,4.0,7.0,92,0.16,,---,0.50,VWS V12.07,2013-03-05 12:28:00,
2013-03-05 07:33:00,39.3,37.2,29.82,NNE,16,8.0,11.0,92,0.14,,---,0.51,VWS V12.07,2013-03-05 12:33:00,
2013-03-05 07:38:00,39.6,37.5,29.82,NE,43,5.0,9.0,92,0.13,,---,0.51,VWS V12.07,2013-03-05 12:38:00,
2013-03-05 07:43:00,39.9,37.8,29.82,NE,50,5.0,9.0,92,0.12,,---,0.52,VWS V12.07,2013-03-05 12:43:00,
2013-03-05 07:48:00,39.9,37.8,29.82,NNE,14,6.0,9.0,92,0.11,,---,0.53,VWS V12.07,2013-03-05 12:48:00,
2013-03-05 07:53:00,39.9,37.8,29.82,NE,43,5.0,8.0,92,0.11,,---,0.54,VWS V12.07,2013-03-05 12:53:00,
2013-03-05 07:58:00,39.9,37.8,29.82,North,10,4.0,7.0,92,0.12,,---,0.55,VWS V12.07,2013-03-05 12:58:00,
2013-03-05 08:03:00,39.9,37.8,29.82,North,10,5.0,8.0,92,0.11,,---,0.56,VWS V12.07,2013-03-05 13:03:00,
2013-03-05 08:08:00,39.9,37.8,29.82,North,10,3.0,5.0,92,0.11,,---,0.56,VWS V12.07,2013-03-05 13:08:00,
2013-03-05 08:13:00,39.8,37.7,29.82,North,6,2.0,4.0,92,0.10,,---,0.57,VWS V12.07,2013-03-05 13:13:00,
2013-03-05 08:18:00,39.8,37.7,29.82,NNE,12,4.0,8.0,92,0.10,,---,0.57,VWS V12.07,2013-03-05 13:18:00,
2013-03-05 08:23:00,39.8,37.7,29.82,North,11,5.0,9.0,92,0.08,,---,0.57,VWS V12.07,2013-03-05 13:23:00,
2013-03-05 08:28:00,39.8,38.0,29.82,NNE,14,4.0,9.0,93,0.08,,---,0.58,VWS V12.07,2013-03-05 13:28:00,
2013-03-05 08:33:00,39.8,38.0,29.80,NNE,23,4.0,9.0,93,0.07,,---,0.59,VWS V12.07,2013-03-05 13:33:00,
2013-03-05 08:38:00,39.9,38.0,29.80,NNE,13,4.0,7.0,93,0.08,,---,0.59,VWS V12.07,2013-03-05 13:38:00,
2013-03-05 08:43:00,39.9,38.0,29.80,NNE,14,5.0,7.0,93,0.08,,---,0.60,VWS V12.07,2013-03-05 13:43:00,
2013-03-05 08:48:00,39.9,38.0,29.80,NNE,14,2.0,5.0,93,0.10,,---,0.62,VWS V12.07,2013-03-05 13:48:00,
2013-03-05 08:53:00,39.9,38.0,29.80,NNE,21,3.0,8.0,93,0.10,,---,0.63,VWS V12.07,2013-03-05 13:53:00,
2013-03-05 08:58:00,40.1,38.2,29.80,NNE,21,2.0,6.0,93,0.11,,---,0.65,VWS V12.07,2013-03-05 13:58:00,
2013-03-05 09:03:00,40.3,38.4,29.80,NE,37,6.0,8.0,93,0.11,,---,0.66,VWS V12.07,2013-03-05 14:03:00,
2013-03-05 09:08:00,40.8,38.9,29.80,NE,41,5.0,8.0,93,0.11,,---,0.68,VWS V12.07,2013-03-05 14:08:00,
2013-03-05 09:13:00,41.2,39.3,29.80,NE,45,7.0,10.0,93,0.13,,---,0.70,VWS V12.07,2013-03-05 14:13:00,
2013-03-05 09:18:00,41.3,39.4,29.78,NE,45,7.0,13.0,93,0.14,,---,0.71,VWS V12.07,2013-03-05 14:18:00,
2013-03-05 09:23:00,41.5,39.6,29.78,ENE,58,6.0,13.0,93,0.15,,---,0.72,VWS V12.07,2013-03-05 14:23:00,
2013-03-05 09:28:00,41.5,39.6,29.78,NE,46,7.0,9.0,93,0.14,,---,0.72,VWS V12.07,2013-03-05 14:28:00,
2013-03-05 09:33:00,41.6,39.7,29.78,NE,41,4.0,9.0,93,0.15,,---,0.73,VWS V12.07,2013-03-05 14:33:00,
2013-03-05 09:38:00,41.6,39.7,29.78,NE,35,7.0,10.0,93,0.14,,---,0.73,VWS V12.07,2013-03-05 14:38:00,
2013-03-05 09:43:00,41.8,39.9,29.78,NE,36,4.0,8.0,93,0.13,,---,0.73,VWS V12.07,2013-03-05 14:43:00,
2013-03-05 09:48:00,41.8,39.9,29.77,NE,36,4.0,7.0,93,0.12,,---,0.73,VWS V12.07,2013-03-05 14:48:00,
2013-03-05 09:53:00,41.9,40.0,29.77,NE,36,2.0,8.0,93,0.10,,---,0.73,VWS V12.07,2013-03-05 14:53:00,
2013-03-05 09:58:00,41.9,40.0,29.77,NE,36,2.0,7.0,93,0.09,,---,0.73,VWS V12.07,2013-03-05 14:58:00,
2013-03-05 10:03:00,42.1,40.5,29.76,NE,37,5.0,9.0,94,0.07,,---,0.73,VWS V12.07,2013-03-05 15:03:00,
2013-03-05 10:08:00,42.2,40.6,29.76,ENE,59,4.0,8.0,94,0.06,,---,0.73,VWS V12.07,2013-03-05 15:08:00,
2013-03-05 10:13:00,42.3,40.7,29.76,NE,43,2.0,4.0,94,0.03,,---,0.73,VWS V12.07,2013-03-05 15:13:00,
2013-03-05 10:18:00,42.3,40.7,29.75,NE,46,5.0,8.0,94,0.02,,---,0.73,VWS V12.07,2013-03-05 15:18:00,
2013-03-05 10:23:00,42.5,40.9,29.75,ENE,60,5.0,7.0,94,0.01,,---,0.73,VWS V12.07,2013-03-05 15:23:00,
2013-03-05 10:28:00,42.5,40.9,29.75,ENE,62,6.0,9.0,94,0.01,,---,0.73,VWS V12.07,2013-03-05 15:28:00,
2013-03-05 10:33:00,42.6,41.0,29.75,East,84,3.0,9.0,94,0.00,,---,0.73,VWS V12.07,2013-03-05 15:33:00,
2013-03-05 10:38:00,42.8,41.2,29.75,ENE,64,6.0,9.0,94,0.01,,---,0.74,VWS V12.07,2013-03-05 15:38:00,
2013-03-05 10:43:00,42.8,41.2,29.75,NE,43,2.0,9.0,94,0.01,,---,0.74,VWS V12.07,2013-03-05 15:43:00,
2013-03-05 10:48:00,43.1,41.5,29.73,NNE,25,6.0,10.0,94,0.01,,---,0.74,VWS V12.07,2013-03-05 15:48:00,
2013-03-05 10:53:00,43.2,41.6,29.73,NE,37,4.0,8.0,94,0.01,,---,0.74,VWS V12.07,2013-03-05 15:53:00,
2013-03-05 10:58:00,43.2,41.6,29.73,NE,51,6.0,11.0,94,0.01,,---,0.74,VWS V12.07,2013-03-05 15:58:00,
2013-03-05 11:03:00,43.2,41.6,29.72,NNE,24,6.0,8.0,94,0.01,,---,0.74,VWS V12.07,2013-03-05 16:03:00,
2013-03-05 11:08:00,43.2,41.6,29.72,NE,43,6.0,9.0,94,0.01,,---,0.74,VWS V12.07,2013-03-05 16:08:00,
2013-03-05 11:13:00,43.2,41.6,29.72,NE,45,4.0,8.0,94,0.01,,---,0.74,VWS V12.07,2013-03-05 16:13:00,
2013-03-05 11:18:00,43.3,41.7,29.72,NE,45,6.0,8.0,94,0.01,,---,0.74,VWS V12.07,2013-03-05 16:18:00,
2013-03-05 11:23:00,43.3,41.7,29.72,NE,45,2.0,7.0,94,0.02,,---,0.75,VWS V12.07,2013-03-05 16:23:00,
2013-03-05 11:28:00,43.5,41.9,29.72,NE,55,5.0,9.0,94,0.03,,---,0.76,VWS V12.07,2013-03-05 16:28:00,
2013-03-05 11:33:00,43.5,41.9,29.72,NE,56,5.0,8.0,94,0.04,,---,0.78,VWS V12.07,2013-03-05 16:33:00,
2013-03-05 11:38:00,43.5,41.9,29.72,NE,56,5.0,9.0,94,0.05,,---,0.79,VWS V12.07,2013-03-05 16:38:00,
2013-03-05 11:43:00,43.5,41.9,29.72,NE,56,6.0,8.0,94,0.05,,---,0.79,VWS V12.07,2013-03-05 16:43:00,
2013-03-05 11:48:00,43.5,41.9,29.71,NE,56,5.0,10.0,94,0.06,,---,0.80,VWS V12.07,2013-03-05 16:48:00,
2013-03-05 11:53:00,43.5,41.9,29.71,NE,55,6.0,8.0,94,0.07,,---,0.82,VWS V12.07,2013-03-05 16:53:00,
2013-03-05 11:58:00,43.5,41.9,29.71,NE,50,5.0,11.0,94,0.09,,---,0.83,VWS V12.07,2013-03-05 16:58:00,
2013-03-05 12:03:00,43.5,41.9,29.70,NE,47,6.0,10.0,94,0.11,,---,0.85,VWS V12.07,2013-03-05 17:03:00,
2013-03-05 12:08:00,43.5,41.9,29.70,NE,50,8.0,11.0,94,0.11,,---,0.85,VWS V12.07,2013-03-05 17:08:00,
2013-03-05 12:13:00,43.5,41.9,29.70,NE,45,4.0,10.0,94,0.11,,---,0.85,VWS V12.07,2013-03-05 17:13:00,
2013-03-05 12:18:00,43.8,42.2,29.67,NE,52,4.0,8.0,94,0.12,,---,0.86,VWS V12.07,2013-03-05 17:18:00,
2013-03-05 12:23:00,43.9,42.3,29.67,ENE,60,2.0,8.0,94,0.11,,---,0.86,VWS V12.07,2013-03-05 17:23:00,
2013-03-05 12:28:00,44.1,42.5,29.67,NE,53,4.0,7.0,94,0.10,,---,0.86,VWS V12.07,2013-03-05 17:28:00,
2013-03-05 12:33:00,44.1,42.5,29.68,NE,48,5.0,11.0,94,0.09,,---,0.86,VWS V12.07,2013-03-05 17:33:00,
2013-03-05 12:38:00,44.1,42.5,29.68,East,80,2.0,8.0,94,0.07,,---,0.86,VWS V12.07,2013-03-05 17:38:00,
2013-03-05 12:43:00,43.9,42.3,29.68,ESE,109,6.0,8.0,94,0.07,,---,0.87,VWS V12.07,2013-03-05 17:43:00,
2013-03-05 12:48:00,44.1,42.5,29.69,ESE,116,5.0,9.0,94,0.08,,---,0.88,VWS V12.07,2013-03-05 17:48:00,
2013-03-05 12:53:00,44.1,42.5,29.69,East,99,8.0,13.0,94,0.09,,---,0.90,VWS V12.07,2013-03-05 17:53:00,
2013-03-05 12:58:00,44.2,42.6,29.69,ENE,65,2.0,7.0,94,0.09,,---,0.92,VWS V12.07,2013-03-05 17:58:00,
2013-03-05 13:03:00,44.3,42.7,29.67,ENE,74,5.0,8.0,94,0.09,,---,0.94,VWS V12.07,2013-03-05 18:03:00,
2013-03-05 13:08:00,44.5,42.9,29.67,ESE,118,4.0,6.0,94,0.10,,---,0.95,VWS V12.07,2013-03-05 18:08:00,
2013-03-05 13:13:00,44.6,43.0,29.67,ENE,64,5.0,8.0,94,0.11,,---,0.96,VWS V12.07,2013-03-05 18:13:00,
2013-03-05 13:18:00,44.6,43.0,29.64,NE,52,5.0,8.0,94,0.12,,---,0.98,VWS V12.07,2013-03-05 18:18:00,
2013-03-05 13:23:00,44.6,43.0,29.64,NE,38,9.0,11.0,94,0.13,,---,0.99,VWS V12.07,2013-03-05 18:23:00,
2013-03-05 13:28:00,44.9,43.3,29.64,ENE,77,8.0,10.0,94,0.14,,---,1.00,VWS V12.07,2013-03-05 18:28:00,
2013-03-05 13:33:00,45.2,43.6,29.60,ENE,61,3.0,9.0,94,0.14,,---,1.00,VWS V12.07,2013-03-05 18:33:00,
2013-03-05 13:38:00,45.5,43.9,29.60,East,79,10.0,13.0,94,0.15,,---,1.01,VWS V12.07,2013-03-05 18:38:00,
2013-03-05 13:43:00,45.7,44.1,29.60,East,99,6.0,10.0,94,0.15,,---,1.01,VWS V12.07,2013-03-05 18:43:00,
2013-03-05 13:48:00,45.8,44.2,29.59,East,83,4.0,10.0,94,0.14,,---,1.01,VWS V12.07,2013-03-05 18:48:00,
2013-03-05 13:53:00,46.0,44.4,29.59,ENE,58,5.0,8.0,94,0.11,,---,1.01,VWS V12.07,2013-03-05 18:53:00,
2013-03-05 13:58:00,46.0,44.4,29.59,SE,139,2.0,5.0,94,0.10,,---,1.01,VWS V12.07,2013-03-05 18:58:00,
2013-03-05 14:03:00,46.0,44.4,29.58,East,90,5.0,9.0,94,0.08,,---,1.01,VWS V12.07,2013-03-05 19:03:00,
2013-03-05 14:09:00,46.2,44.6,29.58,East,83,5.0,7.0,94,0.07,,---,1.02,VWS V12.07,2013-03-05 19:09:00,
2013-03-05 14:14:00,46.2,44.6,29.58,ENE,66,6.0,9.0,94,0.07,,---,1.03,VWS V12.07,2013-03-05 19:14:00,
2013-03-05 14:19:00,46.4,44.8,29.56,ENE,68,5.0,8.0,94,0.06,,---,1.03,VWS V12.07,2013-03-05 19:19:00,
2013-03-05 14:24:00,46.5,44.9,29.56,ESE,115,5.0,7.0,94,0.05,,---,1.04,VWS V12.07,2013-03-05 19:24:00,
2013-03-05 14:29:00,46.5,44.9,29.56,SE,134,2.0,4.0,94,0.04,,---,1.04,VWS V12.07,2013-03-05 19:29:00,
2013-03-05 14:34:00,46.7,45.1,29.57,ESE,122,2.0,6.0,94,0.05,,---,1.05,VWS V12.07,2013-03-05 19:34:00,
2013-03-05 14:39:00,46.8,45.2,29.57,ESE,122,2.0,4.0,94,0.05,,---,1.06,VWS V12.07,2013-03-05 19:39:00,
2013-03-05 14:44:00,47.0,45.4,29.57,East,101,2.0,8.0,94,0.05,,---,1.06,VWS V12.07,2013-03-05 19:44:00,
2013-03-05 14:49:00,47.0,45.4,29.54,ENE,58,6.0,10.0,94,0.06,,---,1.07,VWS V12.07,2013-03-05 19:49:00,
2013-03-05 14:54:00,47.1,45.5,29.54,East,79,7.0,9.0,94,0.06,,---,1.07,VWS V12.07,2013-03-05 19:54:00,
2013-03-05 14:59:00,47.1,45.5,29.54,East,80,7.0,11.0,94,0.06,,---,1.07,VWS V12.07,2013-03-05 19:59:00,
2013-03-05 15:04:00,47.1,45.5,29.53,ENE,60,7.0,9.0,94,0.06,,---,1.07,VWS V12.07,2013-03-05 20:04:00,
2013-03-05 15:09:00,47.1,45.5,29.53,East,99,6.0,9.0,94,0.05,,---,1.07,VWS V12.07,2013-03-05 20:09:00,
2013-03-05 15:14:00,47.0,45.4,29.53,ENE,66,6.0,11.0,94,0.05,,---,1.08,VWS V12.07,2013-03-05 20:14:00,
2013-03-05 15:19:00,46.8,45.2,29.53,NE,55,7.0,10.0,94,0.05,,---,1.08,VWS V12.07,2013-03-05 20:19:00,
2013-03-05 15:24:00,46.8,45.2,29.53,East,94,9.0,11.0,94,0.04,,---,1.08,VWS V12.07,2013-03-05 20:24:00,
2013-03-05 15:29:00,46.7,45.1,29.53,ENE,75,4.0,8.0,94,0.04,,---,1.08,VWS V12.07,2013-03-05 20:29:00,
2013-03-05 15:34:00,46.7,45.1,29.52,ENE,73,7.0,10.0,94,0.03,,---,1.08,VWS V12.07,2013-03-05 20:34:00,
2013-03-05 15:39:00,46.7,45.1,29.52,ENE,66,7.0,13.0,94,0.03,,---,1.08,VWS V12.07,2013-03-05 20:39:00,
2013-03-05 15:44:00,46.7,45.1,29.52,East,81,2.0,5.0,94,0.02,,---,1.08,VWS V12.07,2013-03-05 20:44:00,
2013-03-05 15:49:00,46.7,45.1,29.51,ENE,72,2.0,4.0,94,0.01,,---,1.08,VWS V12.07,2013-03-05 20:49:00,
2013-03-05 15:55:00,46.7,45.1,29.51,ENE,75,2.0,4.0,94,0.02,,---,1.09,VWS V12.07,2013-03-05 20:55:00,
2013-03-05 16:00:00,46.7,45.1,29.51,East,84,2.0,4.0,94,0.02,,---,1.09,VWS V12.07,2013-03-05 21:00:00,
2013-03-05 16:06:00,46.7,45.1,29.51,SE,143,2.0,4.0,94,0.03,,---,1.11,VWS V12.07,2013-03-05 21:06:00,
2013-03-05 16:11:00,46.8,45.2,29.51,East,86,2.0,4.0,94,0.05,,---,1.12,VWS V12.07,2013-03-05 21:11:00,
2013-03-05 16:16:00,46.8,45.2,29.51,East,79,2.0,4.0,94,0.05,,---,1.13,VWS V12.07,2013-03-05 21:16:00,
2013-03-05 16:21:00,47.0,45.4,29.51,SE,133,2.0,4.0,94,0.06,,---,1.14,VWS V12.07,2013-03-05 21:21:00,
2013-03-05 16:26:00,47.3,45.7,29.51,SE,126,2.0,4.0,94,0.07,,---,1.15,VWS V12.07,2013-03-05 21:26:00,
2013-03-05 16:31:00,47.4,45.8,29.51,SSE,151,2.0,4.0,94,0.08,,---,1.16,VWS V12.07,2013-03-05 21:31:00,
2013-03-05 16:36:00,47.6,46.0,29.51,SSE,162,2.0,4.0,94,0.09,,---,1.17,VWS V12.07,2013-03-05 21:36:00,
2013-03-05 16:41:00,47.6,46.0,29.51,SSE,147,2.0,4.0,94,0.10,,---,1.18,VWS V12.07,2013-03-05 21:41:00,
2013-03-05 16:46:00,47.7,46.1,29.52,South,170,2.0,4.0,94,0.11,,---,1.19,VWS V12.07,2013-03-05 21:46:00,
2013-03-05 16:51:00,48.3,46.7,29.52,South,172,2.0,4.0,94,0.11,,---,1.19,VWS V12.07,2013-03-05 21:51:00,
2013-03-05 16:56:00,48.3,46.7,29.52,SW,226,2.0,4.0,94,0.11,,---,1.20,VWS V12.07,2013-03-05 21:56:00,
2013-03-05 17:01:00,48.3,46.7,29.52,SW,221,2.0,4.0,94,0.12,,---,1.21,VWS V12.07,2013-03-05 22:01:00,
2013-03-05 17:06:00,48.0,46.4,29.52,SW,226,2.0,4.0,94,0.11,,---,1.21,VWS V12.07,2013-03-05 22:06:00,
2013-03-05 17:11:00,47.9,46.3,29.52,SSW,212,2.0,4.0,94,0.10,,---,1.22,VWS V12.07,2013-03-05 22:11:00,
2013-03-05 17:16:00,47.6,46.0,29.54,South,185,2.0,4.0,94,0.09,,---,1.22,VWS V12.07,2013-03-05 22:16:00,
2013-03-05 17:21:00,47.0,45.1,29.54,SSW,192,2.0,4.0,93,0.09,,---,1.23,VWS V12.07,2013-03-05 22:21:00,
2013-03-05 17:26:00,45.7,43.5,29.54,SW,233,2.0,4.0,92,0.08,,---,1.23,VWS V12.07,2013-03-05 22:26:00,
2013-03-05 17:31:00,43.9,41.5,29.57,WSW,243,2.0,4.0,91,0.08,,---,1.24,VWS V12.07,2013-03-05 22:31:00,
2013-03-05 17:36:00,42.3,39.6,29.57,SSW,204,2.0,4.0,90,0.08,,---,1.26,VWS V12.07,2013-03-05 22:36:00,
2013-03-05 17:41:00,41.1,38.4,29.57,SW,217,2.0,4.0,90,0.09,,---,1.28,VWS V12.07,2013-03-05 22:41:00,
2013-03-05 17:46:00,39.8,36.8,29.60,WSW,243,2.0,4.0,89,0.09,,---,1.28,VWS V12.07,2013-03-05 22:46:00,
2013-03-05 17:51:00,39.1,36.1,29.60,WSW,245,2.0,4.0,89,0.09,,---,1.28,VWS V12.07,2013-03-05 22:51:00,
2013-03-05 17:56:00,38.6,35.6,29.60,WSW,241,2.0,4.0,89,0.09,,---,1.29,VWS V12.07,2013-03-05 22:56:00,
2013-03-05 18:01:00,37.8,34.6,29.63,South,189,2.0,4.0,88,0.08,,---,1.30,VWS V12.07,2013-03-05 23:01:00,
2013-03-05 18:06:00,37.2,34.3,29.63,SSW,205,2.0,4.0,89,0.09,,---,1.30,VWS V12.07,2013-03-05 23:06:00,
2013-03-05 18:11:00,36.8,33.9,29.63,SW,224,2.0,4.0,89,0.08,,---,1.30,VWS V12.07,2013-03-05 23:11:00,
2013-03-05 18:16:00,36.3,33.4,29.66,WSW,239,2.0,4.0,89,0.09,,---,1.31,VWS V12.07,2013-03-05 23:16:00,
2013-03-05 18:21:00,36.0,33.1,29.66,WSW,239,2.0,4.0,89,0.08,,---,1.31,VWS V12.07,2013-03-05 23:21:00,
2013-03-05 18:26:00,35.6,32.4,29.66,SW,216,2.0,4.0,88,0.08,,---,1.31,VWS V12.07,2013-03-05 23:26:00,
2013-03-05 18:31:00,35.0,31.8,29.69,SSW,202,2.0,4.0,88,0.07,,---,1.31,VWS V12.07,2013-03-05 23:31:00,
2013-03-05 18:36:00,34.1,30.9,29.69,SSW,207,2.0,4.0,88,0.06,,---,1.31,VWS V12.07,2013-03-05 23:36:00,
2013-03-05 18:41:00,33.5,30.6,29.69,SSW,197,2.0,4.0,89,0.04,,---,1.31,VWS V12.07,2013-03-05 23:41:00,
2013-03-05 18:46:00,33.2,30.3,29.71,South,187,2.0,4.0,89,0.03,,---,1.31,VWS V12.07,2013-03-05 23:46:00,
2013-03-05 18:51:00,32.9,30.0,29.71,SSW,210,2.0,4.0,89,0.03,,---,1.31,VWS V12.07,2013-03-05 23:51:00,
2013-03-05 18:56:00,32.9,30.3,29.71,SSW,207,2.0,4.0,90,0.02,,---,1.31,VWS V12.07,2013-03-05 23:56:00,
2013-03-05 19:01:00,32.9,30.3,29.73,SSW,203,2.0,4.0,90,0.02,,---,1.31,VWS V12.07,2013-03-06 00:01:00,
2013-03-05 19:06:00,32.8,30.2,29.73,WNW,295,2.0,4.0,90,0.01,,---,1.31,VWS V12.07,2013-03-06 00:06:00,
2013-03-05 19:11:00,32.8,30.2,29.73,South,190,2.0,4.0,90,0.01,,---,1.31,VWS V12.07,2013-03-06 00:11:00,
2013-03-05 19:16:00,32.8,30.2,29.74,WSW,237,2.0,4.0,90,0.00,,---,1.31,VWS V12.07,2013-03-06 00:16:00,
2013-03-05 19:21:00,32.7,30.1,29.74,SSW,194,2.0,4.0,90,0.00,,---,1.31,VWS V12.07,2013-03-06 00:21:00,
2013-03-05 19:26:00,32.7,30.1,29.74,SSW,197,2.0,4.0,90,0.00,,---,1.31,VWS V12.07,2013-03-06 00:26:00,
2013-03-05 19:31:00,32.7,30.1,29.75,South,186,2.0,4.0,90,0.00,,---,1.31,VWS V12.07,2013-03-06 00:31:00,
2013-03-05 19:36:00,32.7,30.1,29.75,South,180,2.0,4.0,90,0.00,,---,1.31,VWS V12.07,2013-03-06 00:36:00,
2013-03-05 19:41:00,32.7,30.1,29.75,South,187,2.0,4.0,90,0.00,,---,1.31,VWS V12.07,2013-03-06 00:41:00,
2013-03-05 19:46:00,32.5,29.6,29.76,SSW,201,2.0,4.0,89,0.00,,---,1.31,VWS V12.07,2013-03-06 00:46:00,
2013-03-05 19:51:00,32.5,29.6,29.76,SSW,197,2.0,4.0,89,0.00,,---,1.31,VWS V12.07,2013-03-06 00:51:00,
2013-03-05 19:56:00,32.5,29.6,29.76,South,185,2.0,4.0,89,0.00,,---,1.31,VWS V12.07,2013-03-06 00:56:00,
2013-03-05 20:01:00,32.5,29.6,29.77,SSW,198,2.0,4.0,89,0.00,,---,1.31,VWS V12.07,2013-03-06 01:01:00,
2013-03-05 20:06:00,32.5,29.6,29.77,SSW,210,2.0,4.0,89,0.00,,---,1.31,VWS V12.07,2013-03-06 01:06:00,
2013-03-05 20:11:00,32.5,29.6,29.77,WSW,243,2.0,4.0,89,0.00,,---,1.31,VWS V12.07,2013-03-06 01:11:00,
2013-03-05 20:16:00,32.4,29.5,29.77,SSW,193,2.0,4.0,89,0.00,,---,1.31,VWS V12.07,2013-03-06 01:16:00,
2013-03-05 20:22:00,32.4,29.2,29.77,WSW,237,2.0,4.0,88,0.00,,---,1.31,VWS V12.07,2013-03-06 01:22:00,
2013-03-05 20:28:00,32.4,29.2,29.77,SW,218,2.0,4.0,88,0.00,,---,1.31,VWS V12.07,2013-03-06 01:28:00,
2013-03-05 20:33:00,32.4,29.2,29.76,SSW,195,2.0,4.0,88,0.00,,---,1.31,VWS V12.07,2013-03-06 01:33:00,
2013-03-05 20:38:00,32.2,29.0,29.76,South,183,2.0,4.0,88,0.00,,---,1.31,VWS V12.07,2013-03-06 01:38:00,
2013-03-05 20:43:00,32.2,29.0,29.76,SSW,203,2.0,4.0,88,0.00,,---,1.31,VWS V12.07,2013-03-06 01:43:00,
2013-03-05 20:48:00,32.4,29.2,29.77,SSW,209,2.0,4.0,88,0.00,,---,1.31,VWS V12.07,2013-03-06 01:48:00,
2013-03-05 20:53:00,32.4,29.2,29.77,SW,226,2.0,4.0,88,0.00,,---,1.31,VWS V12.07,2013-03-06 01:53:00,
2013-03-05 20:58:00,32.4,29.2,29.77,South,186,2.0,4.0,88,0.00,,---,1.31,VWS V12.07,2013-03-06 01:58:00,
2013-03-05 21:03:00,32.4,29.2,29.77,SSW,209,2.0,4.0,88,0.00,,---,1.31,VWS V12.07,2013-03-06 02:03:00,
2013-03-05 21:08:00,32.2,29.0,29.77,SW,226,2.0,4.0,88,0.00,,---,1.31,VWS V12.07,2013-03-06 02:08:00,
2013-03-05 21:14:00,32.2,28.8,29.77,SSW,198,2.0,4.0,87,0.00,,---,1.31,VWS V12.07,2013-03-06 02:14:00,
2013-03-05 21:19:00,32.1,28.4,29.77,SW,221,2.0,4.0,86,0.00,,---,1.31,VWS V12.07,2013-03-06 02:19:00,
2013-03-05 21:24:00,32.1,28.1,29.77,SW,233,2.0,4.0,85,0.00,,---,1.31,VWS V12.07,2013-03-06 02:24:00,
2013-03-05 21:29:00,32.2,28.2,29.77,South,188,2.0,4.0,85,0.00,,---,1.31,VWS V12.07,2013-03-06 02:29:00,
2013-03-05 21:34:00,32.1,28.1,29.77,SW,230,2.0,4.0,85,0.00,,---,1.31,VWS V12.07,2013-03-06 02:34:00,
2013-03-05 21:39:00,32.1,28.4,29.77,SW,233,2.0,4.0,86,0.00,,---,1.31,VWS V12.07,2013-03-06 02:39:00,
2013-03-05 21:44:00,31.9,28.2,29.77,South,175,2.0,4.0,86,0.00,,---,1.31,VWS V12.07,2013-03-06 02:44:00,
2013-03-05 21:49:00,31.8,28.1,29.78,South,181,2.0,4.0,86,0.00,,---,1.31,VWS V12.07,2013-03-06 02:49:00,
2013-03-05 21:55:00,31.6,27.6,29.78,SSW,212,2.0,4.0,85,0.00,,---,1.31,VWS V12.07,2013-03-06 02:55:00,
2013-03-05 22:00:00,31.5,27.5,29.78,South,187,2.0,4.0,85,0.00,,---,1.31,VWS V12.07,2013-03-06 03:00:00,
2013-03-05 22:06:00,31.3,27.0,29.78,SSW,197,2.0,4.0,84,0.00,,---,1.31,VWS V12.07,2013-03-06 03:06:00,
2013-03-05 22:11:00,31.3,27.0,29.78,South,184,2.0,4.0,84,0.00,,---,1.31,VWS V12.07,2013-03-06 03:11:00,
2013-03-05 22:16:00,31.2,26.9,29.79,SSW,193,2.0,4.0,84,0.00,,---,1.31,VWS V12.07,2013-03-06 03:16:00,
2013-03-05 22:21:00,31.2,26.9,29.79,South,188,2.0,4.0,84,0.00,,---,1.31,VWS V12.07,2013-03-06 03:21:00,
2013-03-05 22:26:00,31.2,26.9,29.79,SSW,208,2.0,4.0,84,0.00,,---,1.31,VWS V12.07,2013-03-06 03:26:00,
2013-03-05 22:31:00,31.0,26.7,29.79,SSW,199,2.0,4.0,84,0.00,,---,1.31,VWS V12.07,2013-03-06 03:31:00,
2013-03-05 22:36:00,31.0,26.7,29.79,SSW,200,2.0,4.0,84,0.00,,---,1.31,VWS V12.07,2013-03-06 03:36:00,
2013-03-05 22:41:00,31.2,26.9,29.79,SW,215,2.0,4.0,84,0.00,,---,1.31,VWS V12.07,2013-03-06 03:41:00,
2013-03-05 22:46:00,30.9,26.6,29.79,South,181,2.0,4.0,84,0.00,,---,1.31,VWS V12.07,2013-03-06 03:46:00,
2013-03-05 22:51:00,30.9,26.4,29.79,South,189,2.0,4.0,83,0.00,,---,1.31,VWS V12.07,2013-03-06 03:51:00,
2013-03-05 22:56:00,30.7,25.9,29.79,South,189,2.0,4.0,82,0.00,,---,1.31,VWS V12.07,2013-03-06 03:56:00,
2013-03-05 23:01:00,30.6,25.8,29.80,SSW,212,2.0,4.0,82,0.00,,---,1.31,VWS V12.07,2013-03-06 04:01:00,
2013-03-05 23:06:00,30.4,25.3,29.80,SW,218,2.0,4.0,81,0.00,,---,1.31,VWS V12.07,2013-03-06 04:06:00,
2013-03-05 23:11:00,30.3,24.9,29.80,South,191,2.0,4.0,80,0.00,,---,1.31,VWS V12.07,2013-03-06 04:11:00,
2013-03-05 23:16:00,30.3,24.6,29.80,SW,214,2.0,4.0,79,0.00,,---,1.31,VWS V12.07,2013-03-06 04:16:00,
2013-03-05 23:21:00,30.1,24.4,29.80,SW,220,2.0,4.0,79,0.00,,---,1.31,VWS V12.07,2013-03-06 04:21:00,
2013-03-05 23:27:00,30.1,24.4,29.80,SW,225,2.0,4.0,79,0.00,,---,1.31,VWS V12.07,2013-03-06 04:27:00,
2013-03-05 23:32:00,30.1,24.4,29.80,SW,220,2.0,4.0,79,0.00,,---,1.31,VWS V12.07,2013-03-06 04:32:00,
2013-03-05 23:37:00,30.1,24.4,29.80,South,185,2.0,4.0,79,0.00,,---,1.31,VWS V12.07,2013-03-06 04:37:00,
2013-03-05 23:42:00,30.1,24.4,29.80,SSW,197,2.0,4.0,79,0.00,,---,1.31,VWS V12.07,2013-03-06 04:42:00,
2013-03-05 23:47:00,30.0,24.3,29.80,SSW,203,2.0,4.0,79,0.00,,---,1.31,VWS V12.07,2013-03-06 04:47:00,
2013-03-05 23:52:00,30.0,23.7,29.80,SW,214,2.0,4.0,77,0.00,,---,1.31,VWS V12.07,2013-03-06 04:52:00,
2013-03-05 23:57:00,30.0,23.4,29.80,South,174,2.0,4.0,76,0.00,,---,1.31,VWS V12.07,2013-03-06 04:57:00,